sensor_id;sensor_type;location;lat;lon;timestamp;pressure;altitude;pressure_sealevel;temperature;humidity
44351;BME280;62766;62.622;17.912;2023-01-25T00:01:03;100942.55;;;2.15;70.88
44351;BME280;62766;62.622;17.912;2023-01-25T00:03:32;100943.53;;;2.19;70.94
44351;BME280;62766;62.622;17.912;2023-01-25T00:06:00;100943.21;;;2.28;70.89
44351;BME280;62766;62.622;17.912;2023-01-25T00:08:29;100938.30;;;2.25;70.98
44351;BME280;62766;62.622;17.912;2023-01-25T00:10:59;100932.72;;;2.26;70.93
44351;BME280;62766;62.622;17.912;2023-01-25T00:13:27;100925.11;;;2.30;70.87
44351;BME280;62766;62.622;17.912;2023-01-25T00:16:00;100918.19;;;2.41;70.96
44351;BME280;62766;62.622;17.912;2023-01-25T00:18:30;100912.39;;;2.42;70.95
44351;BME280;62766;62.622;17.912;2023-01-25T00:20:59;100901.27;;;2.44;70.84
44351;BME280;62766;62.622;17.912;2023-01-25T00:23:38;100907.16;;;2.55;70.74
44351;BME280;62766;62.622;17.912;2023-01-25T00:26:07;100926.91;;;2.43;70.49
44351;BME280;62766;62.622;17.912;2023-01-25T00:28:36;100905.40;;;2.62;70.36
44351;BME280;62766;62.622;17.912;2023-01-25T00:31:06;100894.43;;;2.69;70.21
44351;BME280;62766;62.622;17.912;2023-01-25T00:33:43;100878.33;;;2.73;70.08
44351;BME280;62766;62.622;17.912;2023-01-25T00:36:27;100874.93;;;2.81;69.60
44351;BME280;62766;62.622;17.912;2023-01-25T00:38:59;100855.97;;;2.84;69.47
44351;BME280;62766;62.622;17.912;2023-01-25T00:41:27;100851.47;;;2.97;69.34
44351;BME280;62766;62.622;17.912;2023-01-25T00:43:57;100845.40;;;2.94;69.17
44351;BME280;62766;62.622;17.912;2023-01-25T00:46:25;100849.40;;;2.99;69.06
44351;BME280;62766;62.622;17.912;2023-01-25T00:48:54;100841.29;;;3.16;69.01
44351;BME280;62766;62.622;17.912;2023-01-25T00:51:23;100834.56;;;3.09;68.72
44351;BME280;62766;62.622;17.912;2023-01-25T00:53:52;100820.59;;;3.08;68.87
44351;BME280;62766;62.622;17.912;2023-01-25T00:56:20;100814.10;;;3.16;68.90
44351;BME280;62766;62.622;17.912;2023-01-25T00:58:49;100818.41;;;3.20;68.93
44351;BME280;62766;62.622;17.912;2023-01-25T01:01:17;100812.36;;;3.18;68.99
44351;BME280;62766;62.622;17.912;2023-01-25T01:03:46;100811.72;;;3.24;69.08
44351;BME280;62766;62.622;17.912;2023-01-25T01:06:14;100802.39;;;3.19;69.28
44351;BME280;62766;62.622;17.912;2023-01-25T01:08:42;100795.35;;;3.27;69.60
44351;BME280;62766;62.622;17.912;2023-01-25T01:11:11;100797.44;;;3.35;69.53
44351;BME280;62766;62.622;17.912;2023-01-25T01:13:41;100790.99;;;3.25;69.65
44351;BME280;62766;62.622;17.912;2023-01-25T01:16:11;100781.07;;;3.14;69.68
44351;BME280;62766;62.622;17.912;2023-01-25T01:18:42;100778.60;;;3.32;69.94
44351;BME280;62766;62.622;17.912;2023-01-25T01:21:12;100771.94;;;3.53;70.09
44351;BME280;62766;62.622;17.912;2023-01-25T01:23:41;100772.36;;;3.41;70.32
44351;BME280;62766;62.622;17.912;2023-01-25T01:26:11;100764.53;;;3.45;70.30
44351;BME280;62766;62.622;17.912;2023-01-25T01:28:40;100755.73;;;3.31;70.39
44351;BME280;62766;62.622;17.912;2023-01-25T01:31:12;100749.30;;;3.37;70.23
44351;BME280;62766;62.622;17.912;2023-01-25T01:33:42;100740.72;;;3.38;70.50
44351;BME280;62766;62.622;17.912;2023-01-25T01:36:13;100743.22;;;3.38;70.39
44351;BME280;62766;62.622;17.912;2023-01-25T01:38:42;100738.59;;;3.41;70.41
44351;BME280;62766;62.622;17.912;2023-01-25T01:41:11;100742.18;;;3.44;70.39
44351;BME280;62766;62.622;17.912;2023-01-25T01:43:41;100732.83;;;3.49;70.57
44351;BME280;62766;62.622;17.912;2023-01-25T01:46:14;100728.25;;;3.57;70.31
44351;BME280;62766;62.622;17.912;2023-01-25T01:48:46;100725.00;;;3.61;70.31
44351;BME280;62766;62.622;17.912;2023-01-25T01:51:19;100724.92;;;3.61;70.61
44351;BME280;62766;62.622;17.912;2023-01-25T01:53:52;100722.89;;;3.60;70.43
44351;BME280;62766;62.622;17.912;2023-01-25T01:56:28;100720.22;;;3.75;70.42
44351;BME280;62766;62.622;17.912;2023-01-25T01:58:59;100710.65;;;3.76;70.29
44351;BME280;62766;62.622;17.912;2023-01-25T02:01:29;100700.31;;;3.73;70.15
44351;BME280;62766;62.622;17.912;2023-01-25T02:03:59;100694.78;;;3.75;70.24
44351;BME280;62766;62.622;17.912;2023-01-25T02:06:33;100693.99;;;3.74;70.02
44351;BME280;62766;62.622;17.912;2023-01-25T02:09:05;100688.91;;;3.86;69.87
44351;BME280;62766;62.622;17.912;2023-01-25T02:11:34;100685.03;;;3.80;69.90
44351;BME280;62766;62.622;17.912;2023-01-25T02:14:05;100681.42;;;3.86;69.82
44351;BME280;62766;62.622;17.912;2023-01-25T02:16:34;100677.55;;;3.90;70.14
44351;BME280;62766;62.622;17.912;2023-01-25T02:19:03;100681.54;;;3.83;70.09
44351;BME280;62766;62.622;17.912;2023-01-25T02:21:38;100679.09;;;3.95;70.34
44351;BME280;62766;62.622;17.912;2023-01-25T02:24:11;100672.87;;;3.90;70.57
44351;BME280;62766;62.622;17.912;2023-01-25T02:26:43;100676.85;;;4.03;69.98
44351;BME280;62766;62.622;17.912;2023-01-25T02:29:12;100663.04;;;3.98;70.11
44351;BME280;62766;62.622;17.912;2023-01-25T02:31:43;100653.49;;;4.06;70.52
44351;BME280;62766;62.622;17.912;2023-01-25T02:34:11;100646.37;;;3.96;70.48
44351;BME280;62766;62.622;17.912;2023-01-25T02:36:40;100649.40;;;4.00;70.07
44351;BME280;62766;62.622;17.912;2023-01-25T02:39:11;100636.04;;;4.00;70.11
44351;BME280;62766;62.622;17.912;2023-01-25T02:41:43;100628.99;;;4.05;70.12
44351;BME280;62766;62.622;17.912;2023-01-25T02:44:14;100624.53;;;4.15;70.42
44351;BME280;62766;62.622;17.912;2023-01-25T02:46:44;100609.78;;;4.19;70.49
44351;BME280;62766;62.622;17.912;2023-01-25T02:49:13;100606.14;;;4.24;69.91
44351;BME280;62766;62.622;17.912;2023-01-25T02:51:45;100607.56;;;4.19;70.46
44351;BME280;62766;62.622;17.912;2023-01-25T02:54:16;100602.13;;;4.27;70.56
44351;BME280;62766;62.622;17.912;2023-01-25T02:56:44;100606.73;;;4.24;71.16
44351;BME280;62766;62.622;17.912;2023-01-25T02:59:12;100605.87;;;4.26;70.91
44351;BME280;62766;62.622;17.912;2023-01-25T03:01:42;100602.71;;;4.35;71.32
44351;BME280;62766;62.622;17.912;2023-01-25T03:04:11;100590.22;;;4.16;71.54
44351;BME280;62766;62.622;17.912;2023-01-25T03:06:39;100582.91;;;4.15;71.75
44351;BME280;62766;62.622;17.912;2023-01-25T03:09:09;100575.90;;;4.19;71.95
44351;BME280;62766;62.622;17.912;2023-01-25T03:11:38;100558.36;;;4.20;71.86
44351;BME280;62766;62.622;17.912;2023-01-25T03:14:06;100554.82;;;4.21;71.84
44351;BME280;62766;62.622;17.912;2023-01-25T03:16:34;100551.87;;;4.23;72.26
44351;BME280;62766;62.622;17.912;2023-01-25T03:19:02;100548.29;;;4.34;71.96
44351;BME280;62766;62.622;17.912;2023-01-25T03:21:31;100549.26;;;4.46;71.60
44351;BME280;62766;62.622;17.912;2023-01-25T03:24:00;100545.61;;;4.40;71.50
44351;BME280;62766;62.622;17.912;2023-01-25T03:26:30;100534.17;;;4.34;70.99
44351;BME280;62766;62.622;17.912;2023-01-25T03:28:59;100536.08;;;4.41;71.24
44351;BME280;62766;62.622;17.912;2023-01-25T03:31:28;100529.46;;;4.52;71.50
44351;BME280;62766;62.622;17.912;2023-01-25T03:33:58;100525.04;;;4.47;71.27
44351;BME280;62766;62.622;17.912;2023-01-25T03:36:26;100523.59;;;4.61;71.17
44351;BME280;62766;62.622;17.912;2023-01-25T03:38:54;100520.84;;;4.46;70.84
44351;BME280;62766;62.622;17.912;2023-01-25T03:41:23;100512.59;;;4.36;70.42
44351;BME280;62766;62.622;17.912;2023-01-25T03:43:51;100504.17;;;4.63;69.88
44351;BME280;62766;62.622;17.912;2023-01-25T03:46:19;100509.89;;;4.65;70.06
44351;BME280;62766;62.622;17.912;2023-01-25T03:48:48;100503.90;;;4.59;70.17
44351;BME280;62766;62.622;17.912;2023-01-25T03:51:16;100491.68;;;4.44;69.86
44351;BME280;62766;62.622;17.912;2023-01-25T03:53:44;100492.45;;;4.58;69.83
44351;BME280;62766;62.622;17.912;2023-01-25T03:56:12;100491.37;;;4.56;70.42
44351;BME280;62766;62.622;17.912;2023-01-25T03:58:41;100491.34;;;4.68;70.05
44351;BME280;62766;62.622;17.912;2023-01-25T04:01:09;100482.61;;;4.68;70.19
44351;BME280;62766;62.622;17.912;2023-01-25T04:03:38;100473.45;;;4.56;69.92
44351;BME280;62766;62.622;17.912;2023-01-25T04:06:06;100480.72;;;4.54;69.52
44351;BME280;62766;62.622;17.912;2023-01-25T04:08:34;100480.12;;;4.59;69.70
44351;BME280;62766;62.622;17.912;2023-01-25T04:11:04;100484.44;;;4.55;69.41
44351;BME280;62766;62.622;17.912;2023-01-25T04:13:33;100488.06;;;4.52;69.61
44351;BME280;62766;62.622;17.912;2023-01-25T04:16:01;100491.71;;;4.61;70.15
44351;BME280;62766;62.622;17.912;2023-01-25T04:18:30;100481.96;;;4.55;70.73
44351;BME280;62766;62.622;17.912;2023-01-25T04:20:59;100485.28;;;4.60;70.77
44351;BME280;62766;62.622;17.912;2023-01-25T04:23:28;100478.95;;;4.66;70.52
44351;BME280;62766;62.622;17.912;2023-01-25T04:25:59;100483.41;;;4.66;70.56
44351;BME280;62766;62.622;17.912;2023-01-25T04:28:28;100482.01;;;4.69;70.45
44351;BME280;62766;62.622;17.912;2023-01-25T04:30:58;100485.23;;;4.61;70.40
44351;BME280;62766;62.622;17.912;2023-01-25T04:33:26;100482.10;;;4.78;70.27
44351;BME280;62766;62.622;17.912;2023-01-25T04:35:54;100479.67;;;4.67;70.43
44351;BME280;62766;62.622;17.912;2023-01-25T04:38:23;100479.75;;;4.50;70.88
44351;BME280;62766;62.622;17.912;2023-01-25T04:40:51;100483.77;;;4.60;70.93
44351;BME280;62766;62.622;17.912;2023-01-25T04:43:20;100479.70;;;4.70;70.36
44351;BME280;62766;62.622;17.912;2023-01-25T04:45:47;100487.57;;;4.67;70.39
44351;BME280;62766;62.622;17.912;2023-01-25T04:48:16;100478.03;;;4.70;69.75
44351;BME280;62766;62.622;17.912;2023-01-25T04:50:44;100469.46;;;4.75;69.55
44351;BME280;62766;62.622;17.912;2023-01-25T04:53:12;100469.89;;;4.59;69.29
44351;BME280;62766;62.622;17.912;2023-01-25T04:55:44;100469.27;;;4.72;69.15
44351;BME280;62766;62.622;17.912;2023-01-25T04:58:13;100467.41;;;4.59;69.15
44351;BME280;62766;62.622;17.912;2023-01-25T05:03:42;100465.58;;;4.31;69.53
44351;BME280;62766;62.622;17.912;2023-01-25T05:06:11;100463.20;;;4.31;70.14
44351;BME280;62766;62.622;17.912;2023-01-25T05:08:39;100456.21;;;4.32;70.44
44351;BME280;62766;62.622;17.912;2023-01-25T05:11:07;100459.57;;;4.36;70.49
44351;BME280;62766;62.622;17.912;2023-01-25T05:13:36;100459.36;;;4.28;70.43
44351;BME280;62766;62.622;17.912;2023-01-25T05:16:05;100461.32;;;4.34;70.34
44351;BME280;62766;62.622;17.912;2023-01-25T05:18:32;100466.88;;;4.29;70.34
44351;BME280;62766;62.622;17.912;2023-01-25T05:21:01;100463.71;;;4.37;70.58
44351;BME280;62766;62.622;17.912;2023-01-25T05:23:31;100460.97;;;4.45;70.26
44351;BME280;62766;62.622;17.912;2023-01-25T05:25:59;100458.47;;;4.43;69.82
44351;BME280;62766;62.622;17.912;2023-01-25T05:28:27;100456.96;;;4.61;69.87
44351;BME280;62766;62.622;17.912;2023-01-25T05:30:56;100456.76;;;4.52;70.11
44351;BME280;62766;62.622;17.912;2023-01-25T05:33:24;100455.95;;;4.49;70.15
44351;BME280;62766;62.622;17.912;2023-01-25T05:35:52;100460.79;;;4.38;69.65
44351;BME280;62766;62.622;17.912;2023-01-25T05:38:21;100447.41;;;4.27;69.76
44351;BME280;62766;62.622;17.912;2023-01-25T05:40:49;100435.57;;;4.35;70.22
44351;BME280;62766;62.622;17.912;2023-01-25T05:43:17;100433.17;;;4.39;70.32
44351;BME280;62766;62.622;17.912;2023-01-25T05:45:51;100418.27;;;4.44;70.21
44351;BME280;62766;62.622;17.912;2023-01-25T05:48:19;100422.18;;;4.53;70.26
44351;BME280;62766;62.622;17.912;2023-01-25T05:50:48;100422.55;;;4.42;70.25
44351;BME280;62766;62.622;17.912;2023-01-25T05:53:16;100415.89;;;4.39;70.19
44351;BME280;62766;62.622;17.912;2023-01-25T05:55:44;100407.53;;;4.38;70.57
44351;BME280;62766;62.622;17.912;2023-01-25T05:58:13;100400.56;;;4.46;71.03
44351;BME280;62766;62.622;17.912;2023-01-25T06:00:41;100390.62;;;4.45;70.98
44351;BME280;62766;62.622;17.912;2023-01-25T06:03:09;100380.02;;;4.34;71.58
44351;BME280;62766;62.622;17.912;2023-01-25T06:05:38;100374.62;;;4.45;72.10
44351;BME280;62766;62.622;17.912;2023-01-25T06:08:06;100377.93;;;4.19;72.28
44351;BME280;62766;62.622;17.912;2023-01-25T06:10:35;100370.02;;;4.32;72.64
44351;BME280;62766;62.622;17.912;2023-01-25T06:13:03;100369.65;;;4.44;73.17
44351;BME280;62766;62.622;17.912;2023-01-25T06:15:31;100375.35;;;4.40;73.27
44351;BME280;62766;62.622;17.912;2023-01-25T06:18:00;100376.96;;;4.30;73.78
44351;BME280;62766;62.622;17.912;2023-01-25T06:20:28;100375.46;;;4.30;73.92
44351;BME280;62766;62.622;17.912;2023-01-25T06:22:56;100365.59;;;4.29;74.56
44351;BME280;62766;62.622;17.912;2023-01-25T06:25:25;100361.51;;;4.11;74.90
44351;BME280;62766;62.622;17.912;2023-01-25T06:27:53;100358.33;;;4.12;74.96
44351;BME280;62766;62.622;17.912;2023-01-25T06:30:21;100355.90;;;4.07;74.99
44351;BME280;62766;62.622;17.912;2023-01-25T06:32:50;100361.15;;;4.13;75.07
44351;BME280;62766;62.622;17.912;2023-01-25T06:35:18;100353.67;;;4.15;74.79
44351;BME280;62766;62.622;17.912;2023-01-25T06:37:46;100347.86;;;4.19;74.97
44351;BME280;62766;62.622;17.912;2023-01-25T06:40:15;100344.87;;;4.18;74.84
44351;BME280;62766;62.622;17.912;2023-01-25T06:42:43;100343.90;;;4.24;74.79
44351;BME280;62766;62.622;17.912;2023-01-25T06:45:12;100341.04;;;4.21;74.81
44351;BME280;62766;62.622;17.912;2023-01-25T06:47:40;100347.48;;;4.15;74.80
44351;BME280;62766;62.622;17.912;2023-01-25T06:50:09;100339.08;;;4.24;74.85
44351;BME280;62766;62.622;17.912;2023-01-25T06:52:38;100338.79;;;4.23;75.10
44351;BME280;62766;62.622;17.912;2023-01-25T06:55:07;100344.33;;;4.25;74.99
44351;BME280;62766;62.622;17.912;2023-01-25T06:57:37;100339.93;;;4.30;74.86
44351;BME280;62766;62.622;17.912;2023-01-25T07:00:07;100342.81;;;4.31;74.61
44351;BME280;62766;62.622;17.912;2023-01-25T07:02:35;100344.28;;;4.30;74.73
44351;BME280;62766;62.622;17.912;2023-01-25T07:05:04;100338.82;;;4.26;74.58
44351;BME280;62766;62.622;17.912;2023-01-25T07:07:34;100335.88;;;4.21;74.54
44351;BME280;62766;62.622;17.912;2023-01-25T07:10:03;100343.48;;;4.24;73.99
44351;BME280;62766;62.622;17.912;2023-01-25T07:12:32;100340.36;;;4.22;73.88
44351;BME280;62766;62.622;17.912;2023-01-25T07:15:02;100337.86;;;4.30;73.97
44351;BME280;62766;62.622;17.912;2023-01-25T07:17:31;100344.43;;;4.40;73.80
44351;BME280;62766;62.622;17.912;2023-01-25T07:19:59;100341.19;;;4.35;73.91
44351;BME280;62766;62.622;17.912;2023-01-25T07:22:27;100342.07;;;4.25;74.01
44351;BME280;62766;62.622;17.912;2023-01-25T07:24:56;100327.53;;;4.27;74.16
44351;BME280;62766;62.622;17.912;2023-01-25T07:27:24;100317.78;;;4.14;74.72
44351;BME280;62766;62.622;17.912;2023-01-25T07:29:53;100323.81;;;4.19;74.93
44351;BME280;62766;62.622;17.912;2023-01-25T07:32:21;100321.72;;;4.05;75.11
44351;BME280;62766;62.622;17.912;2023-01-25T07:34:49;100323.64;;;4.05;75.12
44351;BME280;62766;62.622;17.912;2023-01-25T07:37:18;100326.98;;;4.13;75.07
44351;BME280;62766;62.622;17.912;2023-01-25T07:39:46;100324.15;;;4.07;74.89
44351;BME280;62766;62.622;17.912;2023-01-25T07:42:15;100329.48;;;4.20;74.33
44351;BME280;62766;62.622;17.912;2023-01-25T07:44:43;100328.82;;;4.17;74.16
44351;BME280;62766;62.622;17.912;2023-01-25T07:47:11;100331.83;;;4.30;74.05
44351;BME280;62766;62.622;17.912;2023-01-25T07:49:40;100331.85;;;4.38;73.72
44351;BME280;62766;62.622;17.912;2023-01-25T07:52:08;100332.90;;;4.35;73.28
44351;BME280;62766;62.622;17.912;2023-01-25T07:54:36;100328.69;;;4.39;72.91
44351;BME280;62766;62.622;17.912;2023-01-25T07:57:05;100325.00;;;4.52;72.76
44351;BME280;62766;62.622;17.912;2023-01-25T07:59:33;100335.97;;;4.50;72.64
44351;BME280;62766;62.622;17.912;2023-01-25T08:02:02;100334.90;;;4.59;72.78
44351;BME280;62766;62.622;17.912;2023-01-25T08:04:31;100333.75;;;4.77;72.37
44351;BME280;62766;62.622;17.912;2023-01-25T08:07:00;100336.11;;;4.72;72.09
44351;BME280;62766;62.622;17.912;2023-01-25T08:09:30;100333.91;;;4.80;71.87
44351;BME280;62766;62.622;17.912;2023-01-25T08:11:58;100343.21;;;4.90;71.34
44351;BME280;62766;62.622;17.912;2023-01-25T08:14:27;100345.31;;;4.88;70.97
44351;BME280;62766;62.622;17.912;2023-01-25T08:16:55;100340.82;;;4.98;70.71
44351;BME280;62766;62.622;17.912;2023-01-25T08:19:23;100339.07;;;4.91;70.30
44351;BME280;62766;62.622;17.912;2023-01-25T08:21:52;100337.46;;;4.99;70.10
44351;BME280;62766;62.622;17.912;2023-01-25T08:24:20;100336.49;;;4.99;69.97
44351;BME280;62766;62.622;17.912;2023-01-25T08:26:48;100340.85;;;5.07;69.90
44351;BME280;62766;62.622;17.912;2023-01-25T08:29:17;100341.73;;;4.96;70.01
44351;BME280;62766;62.622;17.912;2023-01-25T08:31:45;100340.87;;;4.96;69.92
44351;BME280;62766;62.622;17.912;2023-01-25T08:34:13;100348.26;;;5.10;69.73
44351;BME280;62766;62.622;17.912;2023-01-25T08:36:42;100347.55;;;5.02;69.54
44351;BME280;62766;62.622;17.912;2023-01-25T08:39:11;100348.48;;;5.10;69.89
44351;BME280;62766;62.622;17.912;2023-01-25T08:41:40;100355.44;;;5.04;69.79
44351;BME280;62766;62.622;17.912;2023-01-25T08:44:08;100357.18;;;5.12;69.54
44351;BME280;62766;62.622;17.912;2023-01-25T08:46:37;100359.94;;;5.20;69.19
44351;BME280;62766;62.622;17.912;2023-01-25T08:49:08;100364.01;;;5.25;68.22
44351;BME280;62766;62.622;17.912;2023-01-25T08:51:37;100358.30;;;5.27;68.44
44351;BME280;62766;62.622;17.912;2023-01-25T08:54:07;100357.16;;;5.31;67.97
44351;BME280;62766;62.622;17.912;2023-01-25T08:56:38;100356.47;;;5.41;68.20
44351;BME280;62766;62.622;17.912;2023-01-25T08:59:09;100350.58;;;5.43;68.16
44351;BME280;62766;62.622;17.912;2023-01-25T09:01:37;100344.71;;;5.43;67.76
44351;BME280;62766;62.622;17.912;2023-01-25T09:04:05;100347.05;;;5.59;67.01
44351;BME280;62766;62.622;17.912;2023-01-25T09:06:34;100337.03;;;5.50;67.04
44351;BME280;62766;62.622;17.912;2023-01-25T09:09:03;100338.26;;;5.59;67.05
44351;BME280;62766;62.622;17.912;2023-01-25T09:11:33;100343.75;;;5.57;66.90
44351;BME280;62766;62.622;17.912;2023-01-25T09:14:03;100349.02;;;5.53;66.97
44351;BME280;62766;62.622;17.912;2023-01-25T09:16:32;100349.36;;;5.61;66.80
44351;BME280;62766;62.622;17.912;2023-01-25T09:19:03;100350.40;;;5.63;66.72
44351;BME280;62766;62.622;17.912;2023-01-25T09:21:33;100359.96;;;5.59;67.01
44351;BME280;62766;62.622;17.912;2023-01-25T09:24:02;100358.93;;;5.57;67.14
44351;BME280;62766;62.622;17.912;2023-01-25T09:26:31;100370.55;;;5.47;67.43
44351;BME280;62766;62.622;17.912;2023-01-25T09:28:59;100374.61;;;5.56;67.51
44351;BME280;62766;62.622;17.912;2023-01-25T09:31:27;100368.10;;;5.63;67.44
44351;BME280;62766;62.622;17.912;2023-01-25T09:33:56;100371.70;;;5.64;67.16
44351;BME280;62766;62.622;17.912;2023-01-25T09:36:24;100371.82;;;5.47;67.18
44351;BME280;62766;62.622;17.912;2023-01-25T09:38:54;100366.94;;;5.61;66.86
44351;BME280;62766;62.622;17.912;2023-01-25T09:41:35;100361.73;;;5.61;66.42
44351;BME280;62766;62.622;17.912;2023-01-25T09:44:21;100369.71;;;5.67;66.55
44351;BME280;62766;62.622;17.912;2023-01-25T09:46:54;100373.94;;;5.78;66.44
44351;BME280;62766;62.622;17.912;2023-01-25T09:49:33;100384.42;;;5.67;66.35
44351;BME280;62766;62.622;17.912;2023-01-25T09:52:19;100389.94;;;5.66;66.32
44351;BME280;62766;62.622;17.912;2023-01-25T09:54:55;100389.24;;;5.80;66.01
44351;BME280;62766;62.622;17.912;2023-01-25T09:57:29;100386.68;;;5.87;65.77
44351;BME280;62766;62.622;17.912;2023-01-25T10:00:02;100380.98;;;5.84;65.78
44351;BME280;62766;62.622;17.912;2023-01-25T10:02:38;100375.99;;;5.76;65.98
44351;BME280;62766;62.622;17.912;2023-01-25T10:05:12;100378.70;;;5.75;66.17
44351;BME280;62766;62.622;17.912;2023-01-25T10:07:52;100376.83;;;5.78;66.23
44351;BME280;62766;62.622;17.912;2023-01-25T10:10:31;100370.46;;;5.85;66.16
44351;BME280;62766;62.622;17.912;2023-01-25T10:13:02;100374.50;;;5.67;66.06
44351;BME280;62766;62.622;17.912;2023-01-25T10:15:35;100371.33;;;5.70;66.01
44351;BME280;62766;62.622;17.912;2023-01-25T10:18:17;100367.05;;;5.81;66.12
44351;BME280;62766;62.622;17.912;2023-01-25T10:20:54;100362.51;;;5.86;66.19
44351;BME280;62766;62.622;17.912;2023-01-25T10:23:33;100359.25;;;5.73;66.25
44351;BME280;62766;62.622;17.912;2023-01-25T10:26:10;100356.73;;;5.89;66.07
44351;BME280;62766;62.622;17.912;2023-01-25T10:28:44;100355.36;;;5.74;66.07
44351;BME280;62766;62.622;17.912;2023-01-25T10:31:17;100356.05;;;5.90;65.72
44351;BME280;62766;62.622;17.912;2023-01-25T10:33:48;100359.09;;;5.89;65.70
44351;BME280;62766;62.622;17.912;2023-01-25T10:36:21;100359.89;;;5.87;65.79
44351;BME280;62766;62.622;17.912;2023-01-25T10:38:50;100361.18;;;6.08;65.37
44351;BME280;62766;62.622;17.912;2023-01-25T10:41:21;100353.32;;;6.04;64.74
44351;BME280;62766;62.622;17.912;2023-01-25T10:43:52;100351.05;;;6.07;64.85
44351;BME280;62766;62.622;17.912;2023-01-25T10:46:22;100353.05;;;6.12;64.29
44351;BME280;62766;62.622;17.912;2023-01-25T10:48:52;100351.94;;;5.99;64.34
44351;BME280;62766;62.622;17.912;2023-01-25T10:51:31;100361.13;;;5.99;64.08
44351;BME280;62766;62.622;17.912;2023-01-25T10:54:02;100351.41;;;6.01;64.15
44351;BME280;62766;62.622;17.912;2023-01-25T10:56:33;100357.06;;;6.01;63.67
44351;BME280;62766;62.622;17.912;2023-01-25T10:59:12;100356.34;;;5.94;63.86
44351;BME280;62766;62.622;17.912;2023-01-25T11:03:35;100360.48;;;5.71;64.29
44351;BME280;62766;62.622;17.912;2023-01-25T11:06:05;100367.41;;;5.72;64.30
44351;BME280;62766;62.622;17.912;2023-01-25T11:08:36;100360.77;;;5.74;64.02
44351;BME280;62766;62.622;17.912;2023-01-25T11:11:22;100368.78;;;5.75;64.53
44351;BME280;62766;62.622;17.912;2023-01-25T11:13:53;100375.65;;;5.79;64.27
44351;BME280;62766;62.622;17.912;2023-01-25T11:16:28;100374.79;;;5.68;64.49
44351;BME280;62766;62.622;17.912;2023-01-25T11:18:58;100378.88;;;5.57;64.40
44351;BME280;62766;62.622;17.912;2023-01-25T11:21:28;100376.50;;;5.72;64.06
44351;BME280;62766;62.622;17.912;2023-01-25T11:24:01;100375.71;;;5.62;64.42
44351;BME280;62766;62.622;17.912;2023-01-25T11:26:32;100364.86;;;5.68;64.86
44351;BME280;62766;62.622;17.912;2023-01-25T11:29:10;100361.38;;;5.65;64.74
44351;BME280;62766;62.622;17.912;2023-01-25T11:31:42;100360.76;;;5.62;64.45
44351;BME280;62766;62.622;17.912;2023-01-25T11:34:13;100352.88;;;5.46;65.25
44351;BME280;62766;62.622;17.912;2023-01-25T11:36:54;100355.26;;;5.62;64.71
44351;BME280;62766;62.622;17.912;2023-01-25T11:39:39;100363.20;;;5.56;64.97
44351;BME280;62766;62.622;17.912;2023-01-25T11:42:19;100368.72;;;5.42;65.35
44351;BME280;62766;62.622;17.912;2023-01-25T11:45:02;100371.72;;;5.46;65.39
44351;BME280;62766;62.622;17.912;2023-01-25T11:47:45;100371.62;;;5.57;65.17
44351;BME280;62766;62.622;17.912;2023-01-25T11:50:20;100368.76;;;5.45;65.22
44351;BME280;62766;62.622;17.912;2023-01-25T11:53:10;100363.48;;;5.64;65.83
44351;BME280;62766;62.622;17.912;2023-01-25T11:55:48;100359.52;;;5.70;65.35
44351;BME280;62766;62.622;17.912;2023-01-25T11:58:35;100348.20;;;5.83;65.48
44351;BME280;62766;62.622;17.912;2023-01-25T12:01:17;100349.78;;;5.82;65.64
44351;BME280;62766;62.622;17.912;2023-01-25T12:04:05;100358.18;;;5.89;65.47
44351;BME280;62766;62.622;17.912;2023-01-25T12:06:44;100359.66;;;6.13;65.12
44351;BME280;62766;62.622;17.912;2023-01-25T12:09:28;100359.79;;;6.24;64.48
44351;BME280;62766;62.622;17.912;2023-01-25T12:12:09;100355.05;;;6.19;64.26
44351;BME280;62766;62.622;17.912;2023-01-25T12:14:51;100349.80;;;6.42;64.04
44351;BME280;62766;62.622;17.912;2023-01-25T12:17:30;100344.88;;;6.50;63.77
44351;BME280;62766;62.622;17.912;2023-01-25T12:20:44;100350.93;;;6.46;63.53
44351;BME280;62766;62.622;17.912;2023-01-25T12:23:34;100345.61;;;6.52;63.20
44351;BME280;62766;62.622;17.912;2023-01-25T12:26:13;100339.73;;;6.56;62.98
44351;BME280;62766;62.622;17.912;2023-01-25T12:28:49;100340.51;;;6.59;62.56
44351;BME280;62766;62.622;17.912;2023-01-25T12:31:21;100343.67;;;6.64;62.65
44351;BME280;62766;62.622;17.912;2023-01-25T12:33:56;100343.34;;;6.73;62.80
44351;BME280;62766;62.622;17.912;2023-01-25T12:36:30;100331.86;;;6.63;62.64
44351;BME280;62766;62.622;17.912;2023-01-25T12:39:03;100332.19;;;6.72;62.59
44351;BME280;62766;62.622;17.912;2023-01-25T12:41:38;100335.41;;;6.65;62.64
44351;BME280;62766;62.622;17.912;2023-01-25T12:44:16;100329.97;;;6.72;62.52
44351;BME280;62766;62.622;17.912;2023-01-25T12:46:53;100327.03;;;6.77;62.67
44351;BME280;62766;62.622;17.912;2023-01-25T12:49:26;100317.17;;;6.63;62.52
44351;BME280;62766;62.622;17.912;2023-01-25T12:51:58;100318.61;;;6.68;62.66
44351;BME280;62766;62.622;17.912;2023-01-25T12:54:32;100323.76;;;6.69;62.88
44351;BME280;62766;62.622;17.912;2023-01-25T12:57:10;100324.82;;;6.66;62.99
44351;BME280;62766;62.622;17.912;2023-01-25T12:59:50;100335.41;;;6.63;62.48
44351;BME280;62766;62.622;17.912;2023-01-25T13:02:41;100338.12;;;6.77;62.41
44351;BME280;62766;62.622;17.912;2023-01-25T13:05:21;100343.34;;;6.62;61.96
44351;BME280;62766;62.622;17.912;2023-01-25T13:08:01;100338.84;;;6.59;62.24
44351;BME280;62766;62.622;17.912;2023-01-25T13:10:37;100334.85;;;6.59;61.91
44351;BME280;62766;62.622;17.912;2023-01-25T13:13:20;100331.36;;;6.54;62.04
44351;BME280;62766;62.622;17.912;2023-01-25T13:15:49;100336.40;;;6.56;61.87